createdAt,value
2018-08-25T00:01:14.325Z,99.90
2018-08-25T00:03:45.016Z,99.90
2018-08-25T00:06:14.472Z,99.90
2018-08-25T00:08:43.787Z,99.90
2018-08-25T00:11:12.990Z,99.90
2018-08-25T00:13:42.218Z,99.90
2018-08-25T00:16:11.280Z,99.90
2018-08-25T00:18:40.379Z,99.90
2018-08-25T00:21:09.700Z,99.90
2018-08-25T00:23:38.879Z,99.90
2018-08-25T00:26:08.301Z,99.90
2018-08-25T00:28:37.567Z,99.90
2018-08-25T00:31:12.004Z,99.90
2018-08-25T00:33:41.197Z,99.90
2018-08-25T00:36:10.403Z,99.90
2018-08-25T00:38:41.094Z,99.90
2018-08-25T00:41:10.809Z,99.90
2018-08-25T00:43:40.345Z,99.90
2018-08-25T00:46:10.056Z,99.90
2018-08-25T00:48:39.355Z,99.90
2018-08-25T00:51:08.719Z,99.90
2018-08-25T00:53:38.569Z,99.90
2018-08-25T00:56:07.806Z,99.90
2018-08-25T00:58:38.281Z,99.90
2018-08-25T01:01:07.457Z,99.90
2018-08-25T01:03:36.707Z,99.90
2018-08-25T01:06:06.568Z,99.90
2018-08-25T01:08:35.906Z,99.90
2018-08-25T01:11:06.316Z,99.90
2018-08-25T01:13:35.577Z,99.90
2018-08-25T01:16:04.781Z,99.90
2018-08-25T01:18:34.039Z,99.90
2018-08-25T01:21:03.136Z,99.90
2018-08-25T01:23:32.159Z,99.90
2018-08-25T01:26:01.272Z,99.90
2018-08-25T01:28:30.522Z,99.90
2018-08-25T01:30:59.915Z,99.90
2018-08-25T01:33:29.052Z,99.90
2018-08-25T01:35:58.263Z,99.90
2018-08-25T01:38:27.533Z,99.90
2018-08-25T01:40:56.750Z,99.90
2018-08-25T01:43:25.883Z,99.90
2018-08-25T01:45:55.165Z,99.90
2018-08-25T01:48:24.446Z,99.90
2018-08-25T01:50:54.377Z,99.90
2018-08-25T01:53:23.464Z,99.90
2018-08-25T01:55:52.633Z,99.90
2018-08-25T01:58:22.140Z,99.90
2018-08-25T02:00:51.259Z,99.90
2018-08-25T02:03:20.423Z,99.90
2018-08-25T02:05:50.063Z,99.90
2018-08-25T02:08:19.109Z,99.90
2018-08-25T02:10:48.638Z,99.90
2018-08-25T02:13:17.747Z,99.90
2018-08-25T02:15:47.820Z,99.90
2018-08-25T02:18:17.065Z,99.90
2018-08-25T02:20:47.247Z,99.90
2018-08-25T02:23:17.638Z,99.90
2018-08-25T02:25:46.675Z,99.90
2018-08-25T02:28:16.000Z,99.90
2018-08-25T02:30:45.103Z,99.90
2018-08-25T02:33:14.342Z,99.90
2018-08-25T02:35:44.798Z,99.90
2018-08-25T02:38:14.060Z,99.90
2018-08-25T02:40:43.930Z,99.90
2018-08-25T02:43:14.446Z,99.90
2018-08-25T02:45:43.655Z,99.90
2018-08-25T02:48:13.107Z,99.90
2018-08-25T02:50:42.504Z,99.90
2018-08-25T02:53:13.236Z,99.90
2018-08-25T02:55:42.792Z,99.90
2018-08-25T02:58:11.953Z,99.90
2018-08-25T03:00:40.976Z,99.90
2018-08-25T03:03:10.459Z,99.90
2018-08-25T03:05:46.233Z,99.90
2018-08-25T03:08:15.279Z,99.90
2018-08-25T03:10:44.308Z,99.90
2018-08-25T03:13:14.391Z,99.90
2018-08-25T03:15:43.551Z,99.90
2018-08-25T03:18:12.701Z,99.90
2018-08-25T03:20:42.546Z,99.90
2018-08-25T03:23:12.703Z,99.90
2018-08-25T03:25:43.378Z,99.90
2018-08-25T03:28:12.837Z,99.90
2018-08-25T03:30:42.036Z,99.90
2018-08-25T03:33:11.335Z,99.90
2018-08-25T03:35:40.509Z,99.90
2018-08-25T03:38:10.361Z,99.90
2018-08-25T03:40:40.642Z,99.90
2018-08-25T03:43:09.763Z,99.90
2018-08-25T03:45:40.366Z,99.90
2018-08-25T03:48:09.618Z,99.90
2018-08-25T03:50:38.636Z,99.90
2018-08-25T03:53:07.693Z,99.90
2018-08-25T03:55:37.179Z,99.90
2018-08-25T03:58:06.570Z,99.90
2018-08-25T04:00:35.720Z,99.90
2018-08-25T04:03:04.855Z,99.90
2018-08-25T04:05:34.117Z,99.90
2018-08-25T04:08:03.270Z,99.90
2018-08-25T04:10:33.005Z,99.90
2018-08-25T04:13:02.136Z,99.90
2018-08-25T04:15:31.590Z,99.90
2018-08-25T04:18:00.872Z,99.90
2018-08-25T04:20:31.804Z,99.90
2018-08-25T04:23:00.830Z,99.90
2018-08-25T04:25:31.130Z,99.90
2018-08-25T04:28:00.311Z,99.90
2018-08-25T04:30:29.491Z,99.90
2018-08-25T04:32:58.739Z,99.90
2018-08-25T04:35:28.034Z,99.90
2018-08-25T04:37:58.256Z,99.90
2018-08-25T04:40:27.783Z,99.90
2018-08-25T04:42:56.844Z,99.90
2018-08-25T04:45:25.902Z,99.90
2018-08-25T04:47:55.037Z,99.90
2018-08-25T04:50:24.156Z,99.90
2018-08-25T04:52:53.337Z,99.90
2018-08-25T04:55:22.556Z,99.90
2018-08-25T04:57:51.685Z,99.90
2018-08-25T05:00:20.928Z,99.90
2018-08-25T05:02:50.064Z,99.90
2018-08-25T05:05:23.511Z,99.90
2018-08-25T05:07:53.442Z,99.90
2018-08-25T05:10:22.710Z,99.90
2018-08-25T05:12:52.455Z,99.90
2018-08-25T05:15:21.880Z,99.90
2018-08-25T05:17:51.024Z,99.90
2018-08-25T05:20:20.255Z,99.90
2018-08-25T05:22:49.469Z,99.90
2018-08-25T05:25:18.722Z,99.90
2018-08-25T05:27:48.229Z,99.90
2018-08-25T05:30:17.452Z,99.90
2018-08-25T05:32:46.677Z,99.90
2018-08-25T05:35:15.885Z,99.90
2018-08-25T05:37:46.251Z,99.90
2018-08-25T05:40:15.380Z,99.90
2018-08-25T05:42:44.508Z,99.90
2018-08-25T05:45:13.782Z,99.90
2018-08-25T05:47:42.873Z,99.90
2018-08-25T05:50:12.216Z,99.90
2018-08-25T05:52:41.374Z,99.90
2018-08-25T05:55:11.180Z,99.90
2018-08-25T05:57:40.303Z,99.90
2018-08-25T06:00:10.102Z,99.90
2018-08-25T06:02:39.508Z,99.90
2018-08-25T06:05:08.801Z,99.90
2018-08-25T06:07:38.704Z,99.90
2018-08-25T06:10:07.836Z,99.90
2018-08-25T06:12:37.109Z,99.90
2018-08-25T06:15:06.301Z,99.90
2018-08-25T06:17:35.715Z,99.90
2018-08-25T06:20:05.551Z,99.90
2018-08-25T06:22:34.702Z,99.90
2018-08-25T06:25:04.226Z,99.90
2018-08-25T06:27:33.537Z,99.90
2018-08-25T06:30:02.685Z,99.90
2018-08-25T06:32:34.583Z,99.90
2018-08-25T06:35:03.793Z,99.90
2018-08-25T06:37:32.847Z,99.90
2018-08-25T06:40:02.184Z,99.90
2018-08-25T06:42:31.385Z,99.90
2018-08-25T06:45:00.477Z,99.90
2018-08-25T06:47:29.567Z,99.90
2018-08-25T06:49:58.649Z,99.90
2018-08-25T06:52:27.740Z,99.90
2018-08-25T06:54:56.925Z,99.90
2018-08-25T06:57:26.159Z,99.90
2018-08-25T06:59:55.258Z,99.90
2018-08-25T07:02:24.535Z,99.90
2018-08-25T07:04:53.889Z,99.90
2018-08-25T07:07:24.499Z,99.90
2018-08-25T07:09:53.534Z,99.90
2018-08-25T07:12:22.676Z,99.90
2018-08-25T07:14:52.996Z,99.90
2018-08-25T07:17:22.315Z,99.90
2018-08-25T07:19:51.709Z,99.90
2018-08-25T07:22:20.841Z,99.90
2018-08-25T07:24:50.210Z,99.90
2018-08-25T07:27:19.386Z,99.90
2018-08-25T07:29:48.530Z,99.90
2018-08-25T07:32:17.993Z,99.90
2018-08-25T07:34:47.091Z,99.90
2018-08-25T07:37:16.269Z,99.90
2018-08-25T07:39:45.482Z,99.90
2018-08-25T07:42:15.365Z,99.90
2018-08-25T07:44:45.383Z,99.90
2018-08-25T07:47:14.513Z,99.90
2018-08-25T07:49:43.866Z,99.90
2018-08-25T07:52:13.030Z,99.90
2018-08-25T07:54:42.210Z,99.90
2018-08-25T07:57:11.352Z,99.90
2018-08-25T07:59:40.518Z,99.90
2018-08-25T08:02:11.176Z,99.90
2018-08-25T08:04:41.032Z,99.90
2018-08-25T08:07:10.975Z,99.90
2018-08-25T08:09:41.090Z,99.90
2018-08-25T08:12:10.614Z,99.90
2018-08-25T08:14:39.908Z,99.90
2018-08-25T08:17:08.996Z,99.90
2018-08-25T08:19:41.287Z,99.90
2018-08-25T08:22:10.439Z,99.90
2018-08-25T08:24:39.936Z,99.90
2018-08-25T08:27:09.171Z,99.90
2018-08-25T08:29:38.452Z,99.90
2018-08-25T08:32:08.213Z,99.90
2018-08-25T08:34:37.890Z,99.90
2018-08-25T08:37:07.606Z,99.90
2018-08-25T08:39:39.272Z,99.90
2018-08-25T08:42:08.768Z,99.90
2018-08-25T08:44:39.016Z,99.90
2018-08-25T08:47:08.208Z,99.90
2018-08-25T08:49:46.457Z,99.90
2018-08-25T08:52:06.894Z,99.90
2018-08-25T08:54:36.360Z,99.90
2018-08-25T08:57:05.553Z,99.90
2018-08-25T08:59:34.933Z,99.90
2018-08-25T09:02:04.087Z,99.90
2018-08-25T09:04:34.101Z,99.90
2018-08-25T09:07:03.449Z,99.90
2018-08-25T09:09:32.538Z,99.90
2018-08-25T09:12:01.904Z,99.90
2018-08-25T09:14:31.121Z,99.90
2018-08-25T09:17:00.214Z,99.90
2018-08-25T09:19:29.531Z,99.90
2018-08-25T09:21:59.422Z,99.90
2018-08-25T09:24:28.505Z,99.90
2018-08-25T09:26:58.157Z,99.90
2018-08-25T09:29:27.294Z,99.90
2018-08-25T09:31:56.481Z,99.90
2018-08-25T09:34:26.852Z,99.90
2018-08-25T09:36:56.133Z,99.90
2018-08-25T09:39:25.234Z,99.90
2018-08-25T09:41:54.398Z,99.90
2018-08-25T09:44:23.647Z,99.90
2018-08-25T09:46:52.891Z,99.90
2018-08-25T09:49:21.980Z,99.90
2018-08-25T09:51:51.257Z,99.90
2018-08-25T09:54:21.182Z,99.90
2018-08-25T09:56:50.727Z,99.90
2018-08-25T09:59:20.614Z,99.90
2018-08-25T10:02:01.154Z,99.90
2018-08-25T10:04:31.244Z,99.90
2018-08-25T10:07:00.461Z,99.90
2018-08-25T10:09:29.582Z,99.90
2018-08-25T10:11:58.733Z,99.90
2018-08-25T10:14:28.279Z,99.90
2018-08-25T10:16:57.519Z,99.90
2018-08-25T10:19:28.000Z,99.90
2018-08-25T10:21:57.275Z,99.90
2018-08-25T10:24:27.102Z,99.90
2018-08-25T10:26:56.326Z,99.90
2018-08-25T10:29:26.290Z,99.90
2018-08-25T10:31:55.532Z,99.90
2018-08-25T10:34:25.147Z,99.90
2018-08-25T10:36:54.332Z,99.90
2018-08-25T10:39:25.230Z,99.90
2018-08-25T10:41:55.387Z,99.90
2018-08-25T10:44:24.509Z,99.90
2018-08-25T10:46:53.850Z,99.90
2018-08-25T10:49:23.059Z,99.90
2018-08-25T10:51:52.451Z,99.90
2018-08-25T10:54:21.994Z,99.90
2018-08-25T10:56:51.299Z,99.90
2018-08-25T10:59:20.946Z,99.90
2018-08-25T11:01:50.098Z,99.90
2018-08-25T11:04:19.256Z,99.90
2018-08-25T11:06:49.064Z,99.90
2018-08-25T11:09:18.883Z,99.90
2018-08-25T11:11:48.260Z,99.90
2018-08-25T11:14:18.082Z,99.90
2018-08-25T11:16:47.578Z,99.90
2018-08-25T11:19:16.714Z,99.90
2018-08-25T11:21:46.702Z,99.90
2018-08-25T11:24:15.947Z,99.90
2018-08-25T11:26:48.023Z,99.90
2018-08-25T11:29:17.511Z,99.90
2018-08-25T11:31:47.614Z,99.40
2018-08-25T11:34:18.892Z,99.90
2018-08-25T11:36:49.091Z,99.40
2018-08-25T11:39:18.201Z,98.00
2018-08-25T11:41:49.278Z,99.00
2018-08-25T11:44:18.454Z,99.10
2018-08-25T11:46:47.961Z,97.50
2018-08-25T11:49:17.949Z,98.90
2018-08-25T11:51:47.122Z,98.90
2018-08-25T11:54:16.421Z,98.60
2018-08-25T11:56:45.527Z,98.90
2018-08-25T11:59:15.543Z,98.40
2018-08-25T12:01:44.722Z,99.10
2018-08-25T12:04:13.751Z,99.70
2018-08-25T12:06:43.478Z,99.50
2018-08-25T12:09:13.187Z,99.70
2018-08-25T12:11:42.407Z,98.50
2018-08-25T12:14:12.089Z,96.50
2018-08-25T12:16:41.395Z,96.20
2018-08-25T12:19:11.846Z,96.60
2018-08-25T12:21:41.087Z,97.10
2018-08-25T12:24:10.669Z,96.10
2018-08-25T12:26:40.919Z,96.60
2018-08-25T12:29:10.043Z,96.60
2018-08-25T12:31:39.278Z,97.60
2018-08-25T12:34:08.595Z,95.90
2018-08-25T12:36:37.638Z,96.10
2018-08-25T12:39:11.451Z,95.80
2018-08-25T12:41:40.530Z,96.10
2018-08-25T12:44:10.931Z,95.60
2018-08-25T12:46:40.062Z,96.10
2018-08-25T12:49:09.151Z,92.40
2018-08-25T12:51:39.813Z,92.40
2018-08-25T12:54:09.133Z,93.10
2018-08-25T12:56:38.481Z,94.20
2018-08-25T12:59:08.174Z,94.50
2018-08-25T13:01:38.087Z,94.60
2018-08-25T13:04:07.407Z,94.50
2018-08-25T13:06:36.490Z,94.20
2018-08-25T13:09:09.093Z,93.80
2018-08-25T13:11:38.476Z,93.40
2018-08-25T13:14:08.239Z,93.40
2018-08-25T13:16:37.305Z,93.30
2018-08-25T13:19:06.700Z,94.00
2018-08-25T13:21:35.745Z,93.50
2018-08-25T13:24:05.923Z,92.70
2018-08-25T13:26:35.773Z,92.50
2018-08-25T13:29:05.312Z,92.50
2018-08-25T13:31:34.628Z,92.30
2018-08-25T13:34:03.767Z,92.30
2018-08-25T13:36:32.783Z,93.00
2018-08-25T13:39:02.327Z,91.80
2018-08-25T13:41:31.555Z,92.40
2018-08-25T13:44:00.722Z,91.30
2018-08-25T13:46:30.019Z,90.40
2018-08-25T13:48:59.334Z,91.80
2018-08-25T13:51:28.464Z,90.90
2018-08-25T13:53:57.543Z,89.70
2018-08-25T13:56:27.262Z,91.00
2018-08-25T13:58:56.530Z,91.80
2018-08-25T14:01:26.353Z,92.30
2018-08-25T14:03:55.783Z,92.90
2018-08-25T14:06:24.833Z,92.60
2018-08-25T14:08:54.095Z,92.30
2018-08-25T14:11:23.244Z,91.70
2018-08-25T14:13:52.359Z,92.70
2018-08-25T14:16:21.845Z,93.50
2018-08-25T14:18:51.113Z,94.60
2018-08-25T14:21:20.310Z,94.50
2018-08-25T14:23:50.263Z,95.00
2018-08-25T14:26:19.552Z,95.20
2018-08-25T14:28:48.694Z,94.70
2018-08-25T14:31:17.948Z,94.30
2018-08-25T14:33:47.265Z,93.80
2018-08-25T14:36:16.420Z,94.00
2018-08-25T14:38:45.539Z,93.40
2018-08-25T14:41:14.890Z,93.00
2018-08-25T14:43:44.077Z,93.00
2018-08-25T14:46:13.542Z,93.90
2018-08-25T14:48:43.296Z,94.30
2018-08-25T14:51:12.456Z,95.30
2018-08-25T14:53:41.644Z,95.70
2018-08-25T14:56:11.182Z,95.00
2018-08-25T14:58:40.385Z,93.80
2018-08-25T15:01:09.541Z,93.90
2018-08-25T15:03:38.834Z,93.00
2018-08-25T15:06:07.904Z,91.40
2018-08-25T15:08:37.430Z,91.10
2018-08-25T15:11:06.771Z,91.30
2018-08-25T15:13:36.688Z,91.80
2018-08-25T15:16:05.955Z,92.40
2018-08-25T15:18:35.197Z,92.60
2018-08-25T15:21:04.406Z,93.30
2018-08-25T15:23:33.593Z,93.60
2018-08-25T15:26:03.431Z,93.50
2018-08-25T15:28:32.627Z,92.30
2018-08-25T15:31:01.923Z,92.30
2018-08-25T15:33:31.123Z,91.90
2018-08-25T15:36:00.180Z,91.00
2018-08-25T15:38:29.375Z,88.40
2018-08-25T15:40:59.340Z,85.70
2018-08-25T15:43:28.376Z,83.50
2018-08-25T15:45:57.526Z,83.70
2018-08-25T15:48:26.871Z,84.80
2018-08-25T15:50:55.955Z,85.80
2018-08-25T15:53:25.470Z,87.40
2018-08-25T15:55:54.536Z,88.00
2018-08-25T15:58:23.874Z,88.20
2018-08-25T16:00:52.958Z,86.50
2018-08-25T16:03:22.168Z,86.70
2018-08-25T16:05:51.500Z,85.70
2018-08-25T16:08:20.639Z,81.90
2018-08-25T16:10:49.883Z,81.00
2018-08-25T16:13:19.172Z,80.50
2018-08-25T16:15:48.340Z,84.10
2018-08-25T16:18:17.594Z,84.20
2018-08-25T16:20:47.074Z,86.40
2018-08-25T16:23:17.039Z,85.70
2018-08-25T16:25:46.197Z,85.50
2018-08-25T16:28:15.504Z,85.50
2018-08-25T16:30:45.321Z,85.80
2018-08-25T16:33:14.711Z,82.40
2018-08-25T16:35:44.604Z,82.90
2018-08-25T16:38:13.852Z,82.80
2018-08-25T16:40:42.974Z,82.90
2018-08-25T16:43:12.716Z,83.80
2018-08-25T16:45:41.849Z,84.30
2018-08-25T16:48:11.104Z,84.90
2018-08-25T16:50:40.299Z,84.70
2018-08-25T16:53:09.496Z,85.10
2018-08-25T16:55:38.744Z,84.00
2018-08-25T16:58:07.938Z,83.30
2018-08-25T17:00:37.674Z,83.50
2018-08-25T17:03:06.735Z,82.90
2018-08-25T17:05:36.545Z,82.30
2018-08-25T17:08:05.960Z,82.80
2018-08-25T17:10:35.153Z,82.20
2018-08-25T17:13:04.492Z,81.70
2018-08-25T17:15:33.673Z,81.90
2018-08-25T17:18:03.279Z,81.50
2018-08-25T17:20:32.412Z,82.60
2018-08-25T17:23:01.766Z,83.00
2018-08-25T17:25:30.943Z,83.80
2018-08-25T17:28:00.324Z,84.70
2018-08-25T17:30:29.387Z,85.30
2018-08-25T17:32:58.809Z,84.40
2018-08-25T17:35:27.874Z,84.20
2018-08-25T17:37:58.631Z,83.10
2018-08-25T17:40:27.898Z,81.50
2018-08-25T17:42:57.164Z,81.00
2018-08-25T17:45:26.390Z,81.80
2018-08-25T17:47:55.624Z,83.10
2018-08-25T17:50:24.872Z,84.30
2018-08-25T17:52:54.067Z,85.70
2018-08-25T17:55:23.263Z,87.50
2018-08-25T17:57:52.480Z,89.20
2018-08-25T18:00:21.657Z,90.30
2018-08-25T18:02:50.783Z,90.90
2018-08-25T18:05:19.950Z,90.90
2018-08-25T18:07:49.160Z,91.40
2018-08-25T18:10:18.327Z,91.70
2018-08-25T18:12:47.670Z,91.90
2018-08-25T18:15:16.781Z,92.00
2018-08-25T18:17:46.164Z,92.50
2018-08-25T18:20:15.307Z,92.90
2018-08-25T18:22:44.387Z,93.40
2018-08-25T18:25:14.211Z,93.70
2018-08-25T18:27:43.466Z,94.30
2018-08-25T18:30:12.805Z,94.50
2018-08-25T18:32:41.955Z,95.20
2018-08-25T18:35:11.995Z,95.70
2018-08-25T18:37:41.112Z,95.70
2018-08-25T18:40:10.348Z,96.10
2018-08-25T18:42:39.440Z,96.30
2018-08-25T18:45:09.488Z,96.50
2018-08-25T18:47:38.684Z,97.20
2018-08-25T18:50:08.115Z,97.40
2018-08-25T18:52:37.177Z,97.60
2018-08-25T18:55:06.577Z,97.80
2018-08-25T18:57:35.636Z,98.00
2018-08-25T19:00:04.880Z,98.40
2018-08-25T19:02:34.111Z,98.40
2018-08-25T19:05:03.944Z,98.70
2018-08-25T19:07:33.164Z,98.90
2018-08-25T19:10:02.785Z,99.10
2018-08-25T19:12:32.320Z,99.50
2018-08-25T19:15:01.757Z,99.90
2018-08-25T19:17:31.370Z,99.90
2018-08-25T19:20:02.136Z,99.90
2018-08-25T19:22:31.775Z,99.90
2018-08-25T19:25:01.083Z,99.90
2018-08-25T19:27:30.442Z,99.90
2018-08-25T19:29:59.972Z,99.90
2018-08-25T19:32:29.401Z,99.90
2018-08-25T19:34:59.033Z,99.90
2018-08-25T19:37:28.428Z,99.90
2018-08-25T19:39:58.170Z,99.90
2018-08-25T19:42:27.824Z,99.90
2018-08-25T19:44:58.996Z,99.90
2018-08-25T19:47:29.050Z,99.90
2018-08-25T19:49:59.407Z,99.90
2018-08-25T19:52:29.183Z,99.90
2018-08-25T19:54:58.627Z,99.90
2018-08-25T19:57:28.073Z,99.90
2018-08-25T19:59:57.690Z,99.90
2018-08-25T20:02:26.876Z,99.90
2018-08-25T20:04:56.466Z,99.90
2018-08-25T20:07:26.055Z,99.90
2018-08-25T20:09:56.037Z,99.90
2018-08-25T20:12:25.358Z,99.90
2018-08-25T20:14:55.208Z,99.90
2018-08-25T20:17:25.721Z,99.90
2018-08-25T20:19:55.613Z,99.90
2018-08-25T20:22:25.464Z,99.90
2018-08-25T20:24:55.093Z,99.90
2018-08-25T20:27:25.234Z,99.90
2018-08-25T20:29:54.979Z,99.90
2018-08-25T20:32:24.271Z,99.90
2018-08-25T20:34:54.194Z,99.90
2018-08-25T20:37:23.838Z,99.90
2018-08-25T20:39:53.408Z,99.90
2018-08-25T20:42:23.116Z,99.90
2018-08-25T20:44:54.122Z,99.90
2018-08-25T20:50:59.668Z,99.90
2018-08-25T20:53:29.130Z,99.90
2018-08-25T20:55:59.267Z,99.90
2018-08-25T20:58:29.174Z,99.90
2018-08-25T21:00:59.198Z,99.90
2018-08-25T21:03:30.208Z,99.90
2018-08-25T21:06:00.192Z,99.90
2018-08-25T21:08:29.884Z,99.90
2018-08-25T21:10:59.390Z,99.90
2018-08-25T21:13:28.995Z,99.90
2018-08-25T21:15:58.748Z,99.90
2018-08-25T21:18:28.907Z,99.90
2018-08-25T21:20:58.395Z,99.90
2018-08-25T21:23:27.777Z,99.90
2018-08-25T21:25:58.643Z,99.90
2018-08-25T21:28:28.378Z,99.90
2018-08-25T21:30:57.922Z,99.90
2018-08-25T21:33:27.009Z,99.90
2018-08-25T21:35:56.225Z,99.90
2018-08-25T21:38:25.305Z,99.90
2018-08-25T21:40:54.565Z,99.90
2018-08-25T21:43:25.269Z,99.90
2018-08-25T21:45:55.258Z,99.90
2018-08-25T21:48:24.737Z,99.90
2018-08-25T21:50:54.109Z,99.90
2018-08-25T21:53:23.251Z,99.90
2018-08-25T21:55:52.582Z,99.90
2018-08-25T21:58:21.687Z,99.90
2018-08-25T22:00:56.100Z,99.90
2018-08-25T22:03:26.441Z,99.90
2018-08-25T22:05:56.591Z,99.90
2018-08-25T22:08:26.152Z,99.90
2018-08-25T22:10:55.315Z,99.90
2018-08-25T22:13:26.452Z,99.90
2018-08-25T22:15:55.501Z,99.90
2018-08-25T22:18:25.800Z,99.90
2018-08-25T22:20:55.257Z,99.90
2018-08-25T22:23:24.304Z,99.90
2018-08-25T22:25:53.345Z,99.90
2018-08-25T22:28:22.624Z,99.90
2018-08-25T22:30:51.803Z,99.90
2018-08-25T22:33:20.923Z,99.90
2018-08-25T22:35:50.772Z,99.90
2018-08-25T22:38:20.110Z,99.90
2018-08-25T22:40:49.620Z,99.90
2018-08-25T22:43:18.871Z,99.90
2018-08-25T22:45:48.036Z,99.90
2018-08-25T22:48:18.532Z,99.90
2018-08-25T22:50:47.842Z,99.90
2018-08-25T22:53:17.683Z,99.90
2018-08-25T22:55:46.858Z,99.90
2018-08-25T22:58:17.270Z,99.90
2018-08-25T23:00:46.714Z,99.90
2018-08-25T23:03:15.993Z,99.90
2018-08-25T23:05:45.882Z,99.90
2018-08-25T23:08:15.946Z,99.90
2018-08-25T23:10:45.332Z,99.90
2018-08-25T23:13:14.672Z,99.90
2018-08-25T23:15:44.410Z,99.90
2018-08-25T23:18:14.177Z,99.90
2018-08-25T23:20:45.010Z,99.90
2018-08-25T23:23:14.108Z,99.90
2018-08-25T23:25:43.407Z,99.90
2018-08-25T23:28:12.727Z,99.90
2018-08-25T23:30:41.777Z,99.90
2018-08-25T23:33:11.213Z,99.90
2018-08-25T23:35:40.468Z,99.90
2018-08-25T23:38:09.844Z,99.90
2018-08-25T23:40:39.114Z,99.90
2018-08-25T23:43:09.123Z,99.90
2018-08-25T23:45:39.149Z,99.90
2018-08-25T23:48:08.716Z,99.90
2018-08-25T23:50:37.937Z,99.90
2018-08-25T23:53:08.778Z,99.90
2018-08-25T23:55:39.628Z,99.90
2018-08-25T23:58:08.887Z,99.90
